Time;durP1;ratioP1;P1;durP2;ratioP2;P2;SDS_P1;SDS_P2;PMS_P1;PMS_P2;Temp;Humidity;BMP_temperature;BMP_pressure;BME280_temperature;BME280_humidity;BME280_pressure;Samples;Min_cycle;Max_cycle;Signal;HPM_P1;HPM_P2
2023/10/24 00:00:14;;;;;;;2.55;2.20;;;;;;;;;;5126443;27;41883;-61
2023/10/24 00:02:43;;;;;;;2.70;2.20;;;;;;;;;;5125032;27;41457;-62
2023/10/24 00:05:11;;;;;;;3.17;2.50;;;;;;;;;;5128119;27;40783;-61
2023/10/24 00:07:39;;;;;;;4.38;2.42;;;;;;;;;;5124189;27;42600;-62
2023/10/24 00:10:07;;;;;;;2.75;2.10;;;;;;;;;;5126994;27;40481;-61
2023/10/24 00:12:35;;;;;;;3.03;2.33;;;;;;;;;;5124258;27;41037;-61
2023/10/24 00:15:04;;;;;;;2.78;2.33;;;;;;;;;;5126554;27;42600;-61
2023/10/24 00:17:32;;;;;;;4.05;2.38;;;;;;;;;;5125781;27;41219;-62
2023/10/24 00:20:01;;;;;;;3.40;2.30;;;;;;;;;;5124094;27;42797;-62
2023/10/24 00:22:29;;;;;;;2.10;1.90;;;;;;;;;;5126388;27;42118;-62
2023/10/24 00:24:57;;;;;;;2.30;2.10;;;;;;;;;;5126057;27;39696;-62
2023/10/24 00:27:25;;;;;;;2.25;2.05;;;;;;;;;;5127926;27;41603;-62
2023/10/24 00:29:53;;;;;;;5.90;2.25;;;;;;;;;;5125482;27;42980;-62
2023/10/24 00:32:21;;;;;;;3.08;2.13;;;;;;;;;;5109195;27;39905;-62
2023/10/24 00:34:49;;;;;;;5.20;2.22;;;;;;;;;;5123595;27;41970;-62
2023/10/24 00:37:18;;;;;;;3.22;2.53;;;;;;;;;;5127647;27;40356;-62
2023/10/24 00:39:46;;;;;;;2.50;2.20;;;;;;;;;;5126056;27;42789;-62
2023/10/24 00:42:14;;;;;;;2.65;2.00;;;;;;;;;;5121533;27;42184;-62
2023/10/24 00:44:42;;;;;;;3.05;1.88;;;;;;;;;;5098655;27;39993;-62
2023/10/24 00:47:10;;;;;;;2.85;2.10;;;;;;;;;;5110680;27;40357;-62
2023/10/24 00:49:38;;;;;;;2.08;1.85;;;;;;;;;;5125181;27;41988;-62
2023/10/24 00:52:06;;;;;;;2.25;1.98;;;;;;;;;;5100446;28;40226;-62
2023/10/24 00:54:36;;;;;;;3.28;2.13;;;;;;;;;;5111772;27;42118;-62
2023/10/24 00:57:04;;;;;;;2.22;1.70;;;;;;;;;;5102083;28;38868;-62
2023/10/24 00:59:32;;;;;;;2.10;1.85;;;;;;;;;;5103535;28;41382;-62
2023/10/24 01:02:00;;;;;;;3.15;1.80;;;;;;;;;;5120874;27;43289;-62
2023/10/24 01:04:28;;;;;;;2.60;2.13;;;;;;;;;;5114068;27;40464;-62
2023/10/24 01:06:59;;;;;;;2.45;2.15;;;;;;;;;;5108294;27;41582;-62
2023/10/24 01:09:27;;;;;;;2.00;1.70;;;;;;;;;;5114305;27;42039;-62
2023/10/24 01:11:57;;;;;;;2.83;1.80;;;;;;;;;;5127346;27;40650;-62
2023/10/24 01:14:25;;;;;;;3.03;2.00;;;;;;;;;;5127697;27;41136;-62
2023/10/24 01:16:53;;;;;;;2.20;1.60;;;;;;;;;;5128312;27;40765;-61
2023/10/24 01:19:21;;;;;;;2.30;1.80;;;;;;;;;;5127785;27;42302;-62
2023/10/24 01:21:51;;;;;;;1.75;1.50;;;;;;;;;;5126251;27;41380;-62
2023/10/24 01:24:19;;;;;;;2.95;1.85;;;;;;;;;;5126648;27;40378;-62
2023/10/24 01:26:47;;;;;;;2.67;1.90;;;;;;;;;;5121080;27;42439;-62
2023/10/24 01:29:15;;;;;;;2.97;2.10;;;;;;;;;;5108476;27;40715;-62
2023/10/24 01:31:43;;;;;;;1.63;1.48;;;;;;;;;;5127328;27;41441;-62
2023/10/24 01:34:12;;;;;;;2.40;1.70;;;;;;;;;;5109548;27;40151;-62
2023/10/24 01:36:40;;;;;;;2.38;1.90;;;;;;;;;;5127021;27;42440;-62
2023/10/24 01:39:10;;;;;;;2.28;1.67;;;;;;;;;;5127878;27;41354;-62
2023/10/24 01:41:38;;;;;;;2.20;1.45;;;;;;;;;;5126460;27;42815;-62
2023/10/24 01:44:06;;;;;;;2.45;2.00;;;;;;;;;;5127242;27;39356;-61
2023/10/24 01:46:34;;;;;;;1.60;1.50;;;;;;;;;;5108333;27;41176;-61
2023/10/24 01:49:02;;;;;;;2.13;1.70;;;;;;;;;;5109506;27;40489;-62
2023/10/24 01:51:30;;;;;;;2.25;1.80;;;;;;;;;;5126696;27;40345;-62
2023/10/24 01:53:58;;;;;;;2.58;1.70;;;;;;;;;;5127072;27;41856;-62
2023/10/24 01:56:27;;;;;;;1.60;1.40;;;;;;;;;;5128646;27;43036;-62
2023/10/24 01:58:58;;;;;;;2.58;1.50;;;;;;;;;;5102737;27;38732;-62
2023/10/24 02:01:26;;;;;;;1.98;1.67;;;;;;;;;;5127902;27;42703;-62
2023/10/24 02:03:55;;;;;;;2.15;1.60;;;;;;;;;;5127027;27;41484;-62
2023/10/24 02:06:23;;;;;;;1.67;1.58;;;;;;;;;;5107786;27;41247;-62
2023/10/24 02:08:51;;;;;;;2.85;1.63;;;;;;;;;;5127434;27;43237;-62
2023/10/24 02:11:19;;;;;;;1.83;1.50;;;;;;;;;;5127896;27;40268;-62
2023/10/24 02:13:49;;;;;;;1.60;1.50;;;;;;;;;;5106871;27;39777;-62
2023/10/24 02:16:17;;;;;;;1.95;1.50;;;;;;;;;;5120800;27;43309;-62
2023/10/24 02:18:45;;;;;;;1.80;1.40;;;;;;;;;;5127473;27;40327;-62
2023/10/24 02:21:13;;;;;;;2.47;1.70;;;;;;;;;;5106022;27;41291;-62
2023/10/24 02:23:42;;;;;;;1.98;1.63;;;;;;;;;;5128006;27;41113;-62
2023/10/24 02:26:13;;;;;;;1.70;1.30;;;;;;;;;;5107009;27;40270;-62
2023/10/24 02:28:41;;;;;;;2.88;1.60;;;;;;;;;;5112896;27;42838;-61
2023/10/24 02:31:11;;;;;;;1.50;1.40;;;;;;;;;;5103805;27;39538;-62
2023/10/24 02:33:39;;;;;;;2.25;1.40;;;;;;;;;;5126507;27;41537;-62
2023/10/24 02:36:07;;;;;;;3.13;1.50;;;;;;;;;;5127283;27;41530;-62
2023/10/24 02:38:35;;;;;;;1.75;1.30;;;;;;;;;;5107472;27;38837;-62
2023/10/24 02:41:03;;;;;;;2.72;1.50;;;;;;;;;;5125043;27;42617;-62
2023/10/24 02:43:32;;;;;;;1.70;1.60;;;;;;;;;;5122121;27;40230;-61
2023/10/24 02:46:03;;;;;;;2.13;1.40;;;;;;;;;;5117812;27;41499;-62
2023/10/24 02:48:32;;;;;;;1.80;1.38;;;;;;;;;;5121103;27;41586;-62
2023/10/24 02:51:00;;;;;;;2.08;1.40;;;;;;;;;;5126918;27;40287;-61
2023/10/24 02:53:28;;;;;;;2.97;1.70;;;;;;;;;;5126357;27;41053;-62
2023/10/24 02:55:56;;;;;;;2.40;1.73;;;;;;;;;;5101577;27;40795;-62
2023/10/24 02:58:24;;;;;;;1.92;1.25;;;;;;;;;;5116818;27;39811;-62
2023/10/24 03:00:52;;;;;;;1.42;1.23;;;;;;;;;;5125107;27;43076;-62
2023/10/24 03:03:21;;;;;;;2.28;1.40;;;;;;;;;;5102313;28;41537;-61
2023/10/24 03:05:50;;;;;;;1.85;1.15;;;;;;;;;;5120478;27;41488;-61
2023/10/24 03:08:18;;;;;;;3.38;1.48;;;;;;;;;;5126364;27;42379;-62
2023/10/24 03:10:46;;;;;;;1.80;1.60;;;;;;;;;;5125722;27;42241;-61
2023/10/24 03:13:14;;;;;;;2.13;1.60;;;;;;;;;;5108116;27;40106;-62
2023/10/24 03:15:43;;;;;;;2.55;1.30;;;;;;;;;;5125700;27;41801;-62
2023/10/24 03:18:11;;;;;;;2.08;1.20;;;;;;;;;;5125087;27;41184;-62
2023/10/24 03:20:40;;;;;;;5.20;1.30;;;;;;;;;;5118415;27;42374;-62
2023/10/24 03:23:10;;;;;;;2.15;1.40;;;;;;;;;;5123810;27;42099;-62
2023/10/24 03:25:40;;;;;;;2.13;1.10;;;;;;;;;;5120178;27;39988;-62
2023/10/24 03:28:10;;;;;;;1.50;1.35;;;;;;;;;;5100948;27;41697;-62
2023/10/24 03:30:38;;;;;;;2.65;1.52;;;;;;;;;;5125585;27;40344;-61
2023/10/24 03:33:06;;;;;;;1.77;1.55;;;;;;;;;;5125658;27;41536;-61
2023/10/24 03:35:35;;;;;;;1.42;1.10;;;;;;;;;;5123045;27;42749;-62
2023/10/24 03:38:03;;;;;;;1.65;1.17;;;;;;;;;;5125476;27;41146;-61
2023/10/24 03:40:35;;;;;;;1.10;1.00;;;;;;;;;;5123635;27;41789;-62
2023/10/24 03:43:03;;;;;;;1.48;1.00;;;;;;;;;;5126092;27;41683;-62
2023/10/24 03:45:31;;;;;;;1.55;0.95;;;;;;;;;;5123736;27;39920;-61
2023/10/24 03:47:59;;;;;;;1.33;1.20;;;;;;;;;;5125854;27;41046;-63
2023/10/24 03:50:27;;;;;;;1.85;0.90;;;;;;;;;;5123553;27;41308;-61
2023/10/24 03:52:55;;;;;;;1.35;1.25;;;;;;;;;;5111670;27;42452;-62
2023/10/24 03:55:23;;;;;;;1.40;1.20;;;;;;;;;;5126128;27;42052;-62
2023/10/24 03:57:52;;;;;;;1.60;1.10;;;;;;;;;;5127214;27;41240;-62
2023/10/24 04:00:21;;;;;;;2.03;1.23;;;;;;;;;;5123174;27;41637;-62
2023/10/24 04:02:51;;;;;;;1.10;0.90;;;;;;;;;;5126746;27;42495;-62
2023/10/24 04:05:19;;;;;;;1.40;1.17;;;;;;;;;;5128722;27;40153;-62
2023/10/24 04:07:47;;;;;;;1.42;1.10;;;;;;;;;;5122103;27;41372;-62
2023/10/24 04:10:15;;;;;;;1.65;1.00;;;;;;;;;;5124265;27;32562;-62
2023/10/24 04:12:43;;;;;;;2.13;1.10;;;;;;;;;;5123218;27;42140;-62
2023/10/24 04:15:12;;;;;;;1.38;1.05;;;;;;;;;;5129398;27;41759;-62
2023/10/24 04:17:40;;;;;;;1.33;1.10;;;;;;;;;;5127495;27;39957;-62
2023/10/24 04:20:09;;;;;;;1.40;1.20;;;;;;;;;;5127474;27;40960;-62
2023/10/24 04:22:37;;;;;;;1.38;1.00;;;;;;;;;;5128163;27;42341;-62
2023/10/24 04:25:05;;;;;;;1.00;0.80;;;;;;;;;;5127474;27;41264;-62
2023/10/24 04:27:33;;;;;;;1.50;1.13;;;;;;;;;;5127910;27;42266;-62
2023/10/24 04:30:02;;;;;;;1.20;1.10;;;;;;;;;;5127429;27;42185;-62
2023/10/24 04:32:31;;;;;;;1.75;1.17;;;;;;;;;;5121708;27;42151;-62
2023/10/24 04:35:00;;;;;;;1.23;1.02;;;;;;;;;;5126419;27;42156;-62
2023/10/24 04:37:28;;;;;;;1.73;1.10;;;;;;;;;;5128609;27;40911;-62
2023/10/24 04:39:56;;;;;;;1.85;1.30;;;;;;;;;;5128598;27;42324;-62
2023/10/24 04:42:24;;;;;;;1.60;1.20;;;;;;;;;;5109302;27;41393;-62
2023/10/24 04:44:52;;;;;;;1.45;1.20;;;;;;;;;;5128885;27;41385;-62
2023/10/24 04:47:20;;;;;;;2.47;1.27;;;;;;;;;;5126056;27;41720;-62
2023/10/24 04:49:49;;;;;;;3.95;1.50;;;;;;;;;;5127981;27;41927;-62
2023/10/24 04:52:17;;;;;;;1.30;1.10;;;;;;;;;;5127736;27;40572;-61
2023/10/24 04:54:45;;;;;;;1.77;1.27;;;;;;;;;;5119490;27;42552;-62
2023/10/24 04:57:13;;;;;;;2.17;1.10;;;;;;;;;;5127679;27;39752;-62
2023/10/24 04:59:41;;;;;;;1.20;0.90;;;;;;;;;;5127867;27;40223;-62
2023/10/24 05:02:09;;;;;;;1.45;1.08;;;;;;;;;;5128820;27;42057;-61
2023/10/24 05:04:37;;;;;;;2.30;1.38;;;;;;;;;;5126231;27;40411;-61
2023/10/24 05:07:06;;;;;;;1.30;1.13;;;;;;;;;;5128009;27;41661;-62
2023/10/24 05:09:37;;;;;;;1.13;1.00;;;;;;;;;;5125798;27;42058;-61
2023/10/24 05:12:05;;;;;;;1.25;0.90;;;;;;;;;;5128390;27;39821;-62
2023/10/24 05:14:33;;;;;;;1.13;1.02;;;;;;;;;;5127554;27;41678;-62
2023/10/24 05:17:04;;;;;;;1.33;1.05;;;;;;;;;;5127600;27;40270;-61
2023/10/24 05:19:32;;;;;;;1.30;0.90;;;;;;;;;;5125733;27;41007;-62
2023/10/24 05:22:00;;;;;;;1.23;0.90;;;;;;;;;;5127341;27;41405;-61
2023/10/24 05:24:30;;;;;;;1.40;1.00;;;;;;;;;;5128309;27;40254;-62
2023/10/24 05:26:57;;;;;;;1.00;0.90;;;;;;;;;;5124549;27;41459;-62
2023/10/24 05:29:25;;;;;;;1.15;1.05;;;;;;;;;;5127754;27;42165;-61
2023/10/24 05:31:53;;;;;;;1.45;1.00;;;;;;;;;;5122377;27;41306;-61
2023/10/24 05:34:22;;;;;;;1.67;1.10;;;;;;;;;;5118970;27;42663;-62
2023/10/24 05:36:50;;;;;;;1.00;0.88;;;;;;;;;;5124420;27;42308;-62
2023/10/24 05:39:19;;;;;;;0.80;0.80;;;;;;;;;;5128174;27;41077;-62
2023/10/24 05:41:48;;;;;;;1.30;0.80;;;;;;;;;;5126557;27;41936;-62
2023/10/24 05:44:16;;;;;;;2.58;1.10;;;;;;;;;;5126243;27;39965;-61
2023/10/24 05:46:44;;;;;;;1.38;1.08;;;;;;;;;;5127835;27;41683;-62
2023/10/24 05:49:13;;;;;;;1.17;0.98;;;;;;;;;;5124063;27;42860;-62
2023/10/24 05:51:41;;;;;;;1.52;1.23;;;;;;;;;;5127437;27;39865;-62
2023/10/24 05:54:09;;;;;;;1.50;1.00;;;;;;;;;;5126536;27;41171;-62
2023/10/24 05:56:36;;;;;;;1.90;1.00;;;;;;;;;;5121911;27;41994;-62
2023/10/24 05:59:06;;;;;;;1.30;0.93;;;;;;;;;;5124922;27;40327;-61
2023/10/24 06:01:34;;;;;;;1.10;1.00;;;;;;;;;;5126497;27;42231;-61
2023/10/24 06:04:02;;;;;;;0.80;0.80;;;;;;;;;;5126000;27;42353;-62
2023/10/24 06:06:30;;;;;;;1.13;0.93;;;;;;;;;;5123651;27;42247;-61
2023/10/24 06:08:58;;;;;;;1.30;1.00;;;;;;;;;;5127832;27;42584;-61
2023/10/24 06:11:26;;;;;;;1.90;1.40;;;;;;;;;;5122691;27;40247;-61
2023/10/24 06:13:54;;;;;;;1.27;1.00;;;;;;;;;;5126372;27;41275;-62
2023/10/24 06:16:23;;;;;;;1.08;0.98;;;;;;;;;;5124158;27;42682;-62
2023/10/24 06:18:51;;;;;;;1.17;0.90;;;;;;;;;;5124333;27;40317;-62
2023/10/24 06:21:19;;;;;;;1.23;0.98;;;;;;;;;;5126233;27;42084;-62
2023/10/24 06:23:47;;;;;;;1.40;0.93;;;;;;;;;;5124325;27;39408;-62
2023/10/24 06:26:15;;;;;;;1.52;1.00;;;;;;;;;;5126527;27;42609;-62
2023/10/24 06:28:43;;;;;;;1.00;0.90;;;;;;;;;;5124907;27;41609;-61
2023/10/24 06:31:11;;;;;;;1.15;0.90;;;;;;;;;;5120517;27;42597;-62
2023/10/24 06:33:40;;;;;;;1.10;0.80;;;;;;;;;;5118965;27;41658;-62
2023/10/24 06:36:09;;;;;;;1.60;1.15;;;;;;;;;;5127032;27;41721;-61
2023/10/24 06:38:37;;;;;;;1.27;1.10;;;;;;;;;;5125079;27;40069;-61
2023/10/24 06:41:06;;;;;;;1.42;1.00;;;;;;;;;;5125187;27;41771;-61
2023/10/24 06:43:35;;;;;;;1.38;1.10;;;;;;;;;;5126273;27;41358;-62
2023/10/24 06:46:03;;;;;;;1.52;1.30;;;;;;;;;;5125592;27;42156;-61
2023/10/24 06:48:31;;;;;;;1.58;1.00;;;;;;;;;;5125488;27;42412;-62
2023/10/24 06:51:01;;;;;;;1.10;0.98;;;;;;;;;;5124424;27;40283;-62
2023/10/24 06:53:29;;;;;;;1.13;0.93;;;;;;;;;;5126167;27;43349;-62
2023/10/24 06:56:00;;;;;;;1.20;1.00;;;;;;;;;;5125189;27;42263;-62
2023/10/24 06:58:28;;;;;;;1.50;1.10;;;;;;;;;;5115435;27;39848;-62
2023/10/24 07:00:56;;;;;;;1.00;0.90;;;;;;;;;;5122454;27;41894;-62
2023/10/24 07:03:24;;;;;;;1.55;0.98;;;;;;;;;;5126767;27;41871;-61
2023/10/24 07:05:52;;;;;;;1.02;0.90;;;;;;;;;;5126405;27;41316;-62
2023/10/24 07:08:22;;;;;;;1.55;0.98;;;;;;;;;;5116323;27;41567;-61
2023/10/24 07:10:50;;;;;;;1.00;0.70;;;;;;;;;;5120603;27;41689;-62
2023/10/24 07:13:18;;;;;;;1.00;0.90;;;;;;;;;;5118514;27;42143;-61
2023/10/24 07:15:46;;;;;;;1.75;1.10;;;;;;;;;;5118988;27;41725;-62
2023/10/24 07:18:15;;;;;;;1.40;0.90;;;;;;;;;;5123920;27;41327;-62
2023/10/24 07:20:43;;;;;;;1.00;0.90;;;;;;;;;;5117347;27;42288;-61
2023/10/24 07:23:11;;;;;;;1.23;1.00;;;;;;;;;;5116643;27;41564;-62
2023/10/24 07:25:41;;;;;;;1.58;1.10;;;;;;;;;;5116026;27;42769;-61
2023/10/24 07:28:09;;;;;;;0.95;0.85;;;;;;;;;;5119795;27;41510;-61
2023/10/24 07:30:37;;;;;;;1.35;1.10;;;;;;;;;;5115265;27;40016;-61
2023/10/24 07:33:05;;;;;;;0.93;0.82;;;;;;;;;;5121364;27;42628;-61
2023/10/24 07:35:33;;;;;;;1.63;0.80;;;;;;;;;;5127070;27;40790;-62
2023/10/24 07:38:01;;;;;;;2.05;1.10;;;;;;;;;;5126331;27;40284;-62
2023/10/24 07:40:31;;;;;;;1.55;0.80;;;;;;;;;;5125115;27;41747;-62
2023/10/24 07:43:00;;;;;;;0.80;0.68;;;;;;;;;;5117894;27;40545;-62
2023/10/24 07:45:28;;;;;;;1.00;0.80;;;;;;;;;;5126098;27;40684;-62
2023/10/24 07:47:56;;;;;;;1.25;0.80;;;;;;;;;;5128297;27;41260;-62
2023/10/24 07:50:24;;;;;;;1.10;0.85;;;;;;;;;;5129378;27;40345;-62
2023/10/24 07:52:52;;;;;;;0.90;0.77;;;;;;;;;;5127071;27;42602;-60
2023/10/24 07:55:20;;;;;;;1.10;1.00;;;;;;;;;;5118871;27;42622;-60
2023/10/24 07:57:49;;;;;;;1.02;0.90;;;;;;;;;;5117928;27;39762;-60
2023/10/24 08:00:19;;;;;;;2.08;0.90;;;;;;;;;;5123050;27;42198;-60
2023/10/24 08:02:47;;;;;;;1.05;0.88;;;;;;;;;;5126973;27;41685;-60
2023/10/24 08:05:15;;;;;;;1.75;1.10;;;;;;;;;;5119954;27;41251;-61
2023/10/24 08:07:43;;;;;;;1.67;1.23;;;;;;;;;;5124885;27;42062;-61
2023/10/24 08:10:11;;;;;;;5.95;1.45;;;;;;;;;;5125076;27;42539;-61
2023/10/24 08:12:39;;;;;;;3.08;1.52;;;;;;;;;;5111854;27;41996;-61
2023/10/24 08:15:09;;;;;;;3.10;1.25;;;;;;;;;;5124826;27;41500;-60
2023/10/24 08:17:38;;;;;;;3.65;0.85;;;;;;;;;;5125917;27;40616;-60
2023/10/24 08:20:07;;;;;;;3.35;1.40;;;;;;;;;;5115402;27;41813;-60
2023/10/24 08:22:35;;;;;;;2.03;1.65;;;;;;;;;;5128486;27;42238;-60
2023/10/24 08:25:03;;;;;;;2.85;1.60;;;;;;;;;;5126136;27;41147;-61
2023/10/24 08:27:31;;;;;;;6.03;1.40;;;;;;;;;;5124051;27;41097;-61
2023/10/24 08:29:59;;;;;;;3.10;1.25;;;;;;;;;;5116661;27;41629;-61
2023/10/24 08:32:27;;;;;;;2.90;0.82;;;;;;;;;;5123085;27;42152;-61
2023/10/24 08:34:56;;;;;;;6.75;2.00;;;;;;;;;;5123033;27;41728;-62
2023/10/24 08:37:24;;;;;;;2.20;1.10;;;;;;;;;;5122985;27;41456;-62
2023/10/24 08:39:52;;;;;;;4.68;1.60;;;;;;;;;;5117602;27;41395;-61
2023/10/24 08:42:21;;;;;;;1.15;0.85;;;;;;;;;;5123749;27;42004;-61
2023/10/24 08:44:50;;;;;;;2.72;0.98;;;;;;;;;;5109483;27;40057;-61
2023/10/24 08:47:19;;;;;;;1.45;1.10;;;;;;;;;;5120873;27;41596;-62
2023/10/24 08:49:47;;;;;;;2.78;1.52;;;;;;;;;;5123193;27;43180;-61
2023/10/24 08:52:16;;;;;;;2.55;1.52;;;;;;;;;;5122229;27;41874;-61
2023/10/24 08:54:58;;;;;;;10.40;1.73;;;;;;;;;;5122648;27;41507;-61
2023/10/24 08:57:28;;;;;;;2.13;0.90;;;;;;;;;;5121921;27;41967;-61
2023/10/24 08:59:56;;;;;;;4.75;1.30;;;;;;;;;;5119884;27;42221;-61
2023/10/24 09:02:24;;;;;;;1.98;1.70;;;;;;;;;;5126160;27;42271;-61
2023/10/24 09:04:52;;;;;;;5.07;1.25;;;;;;;;;;5123246;27;39894;-61
2023/10/24 09:07:21;;;;;;;1.52;1.40;;;;;;;;;;5123430;27;41480;-61
2023/10/24 09:09:49;;;;;;;2.53;1.13;;;;;;;;;;5121243;27;41767;-61
2023/10/24 09:12:17;;;;;;;3.35;1.63;;;;;;;;;;5122785;27;41385;-61
2023/10/24 09:14:45;;;;;;;2.78;1.73;;;;;;;;;;5104468;27;41275;-61
2023/10/24 09:17:20;;;;;;;2.13;0.95;;;;;;;;;;5122137;27;39983;-62
2023/10/24 09:19:49;;;;;;;1.90;1.35;;;;;;;;;;5119042;27;42161;-61
2023/10/24 09:22:17;;;;;;;3.85;1.15;;;;;;;;;;5119420;27;42566;-61
2023/10/24 09:24:46;;;;;;;2.17;1.20;;;;;;;;;;5124643;27;40628;-61
2023/10/24 09:27:14;;;;;;;2.75;1.08;;;;;;;;;;5119974;27;41278;-62
2023/10/24 09:29:42;;;;;;;3.28;1.83;;;;;;;;;;5119567;27;41035;-64
2023/10/24 09:32:14;;;;;;;2.20;1.20;;;;;;;;;;5122627;27;39665;-64
2023/10/24 09:34:42;;;;;;;7.68;1.98;;;;;;;;;;5121934;27;40706;-64
2023/10/24 09:37:11;;;;;;;2.22;1.10;;;;;;;;;;5117510;27;42946;-64
2023/10/24 09:39:56;;;;;;;4.97;1.05;;;;;;;;;;5121605;27;41140;-64
2023/10/24 09:42:27;;;;;;;5.85;2.20;;;;;;;;;;5120347;27;42101;-64
2023/10/24 09:45:01;;;;;;;6.15;1.80;;;;;;;;;;5121350;27;40389;-64
2023/10/24 09:47:30;;;;;;;3.42;1.58;;;;;;;;;;5117522;27;41982;-64
2023/10/24 09:49:58;;;;;;;11.60;3.35;;;;;;;;;;5123172;27;41543;-64
2023/10/24 09:52:27;;;;;;;2.85;1.27;;;;;;;;;;5121913;27;40850;-64
2023/10/24 09:54:57;;;;;;;6.22;3.22;;;;;;;;;;5124343;27;41231;-65
2023/10/24 09:57:26;;;;;;;4.65;1.20;;;;;;;;;;5119230;27;42165;-64
2023/10/24 09:59:55;;;;;;;6.15;2.60;;;;;;;;;;5118855;27;40016;-64
2023/10/24 10:02:23;;;;;;;4.35;2.58;;;;;;;;;;5120703;27;43395;-64
2023/10/24 10:04:51;;;;;;;3.70;1.80;;;;;;;;;;5115222;27;40885;-64
2023/10/24 10:07:20;;;;;;;3.00;1.40;;;;;;;;;;5118316;27;41076;-64
2023/10/24 10:09:49;;;;;;;4.47;1.95;;;;;;;;;;5119834;27;42124;-64
2023/10/24 10:12:18;;;;;;;3.88;2.25;;;;;;;;;;5120450;27;41844;-64
2023/10/24 10:14:52;;;;;;;3.00;1.40;;;;;;;;;;5122486;27;41721;-64
2023/10/24 10:17:22;;;;;;;3.38;1.60;;;;;;;;;;5117813;27;41688;-63
2023/10/24 10:19:56;;;;;;;6.63;3.13;;;;;;;;;;5118056;27;41153;-63
2023/10/24 10:22:48;;;;;;;3.50;1.58;;;;;;;;;;5088935;27;20763;-63
2023/10/24 10:25:24;;;;;;;4.40;1.65;;;;;;;;;;5123314;27;41504;-64
2023/10/24 10:27:55;;;;;;;4.25;2.03;;;;;;;;;;5109440;27;41140;-63
2023/10/24 10:30:27;;;;;;;3.58;2.65;;;;;;;;;;5117275;27;42157;-64
2023/10/24 10:32:59;;;;;;;6.75;3.88;;;;;;;;;;5111165;27;40261;-61
2023/10/24 10:35:47;;;;;;;4.03;2.33;;;;;;;;;;5119893;27;42008;-61
2023/10/24 10:38:24;;;;;;;4.97;1.55;;;;;;;;;;5119063;27;41931;-61
2023/10/24 10:40:52;;;;;;;3.65;2.10;;;;;;;;;;5112065;27;40986;-60
2023/10/24 10:43:31;;;;;;;2.20;1.95;;;;;;;;;;5119497;27;41478;-61
2023/10/24 10:46:17;;;;;;;2.75;1.27;;;;;;;;;;5116269;27;40570;-64
2023/10/24 10:48:45;;;;;;;3.10;1.98;;;;;;;;;;5115489;27;41178;-64
2023/10/24 10:51:13;;;;;;;2.85;1.40;;;;;;;;;;5116670;27;41995;-64
2023/10/24 10:53:42;;;;;;;5.05;2.03;;;;;;;;;;5116624;27;39704;-63
2023/10/24 10:56:14;;;;;;;4.07;1.52;;;;;;;;;;5116792;27;41091;-64
2023/10/24 10:58:49;;;;;;;8.90;1.98;;;;;;;;;;5121540;27;41643;-64
2023/10/24 11:01:18;;;;;;;4.25;1.67;;;;;;;;;;5120258;27;41278;-63
2023/10/24 11:03:47;;;;;;;3.00;1.85;;;;;;;;;;5114612;27;40172;-64
2023/10/24 11:06:16;;;;;;;3.30;1.40;;;;;;;;;;5124745;27;42804;-64
2023/10/24 11:08:44;;;;;;;5.40;1.90;;;;;;;;;;5120405;27;41293;-63
2023/10/24 11:11:12;;;;;;;4.55;1.80;;;;;;;;;;5120973;27;41988;-64
2023/10/24 11:13:41;;;;;;;3.55;2.20;;;;;;;;;;5117175;27;40431;-63
2023/10/24 11:16:11;;;;;;;3.97;2.42;;;;;;;;;;5121294;27;42166;-64
2023/10/24 11:18:59;;;;;;;2.15;1.23;;;;;;;;;;5115213;27;42115;-63
2023/10/24 11:21:27;;;;;;;3.63;2.35;;;;;;;;;;5121456;27;41294;-63
2023/10/24 11:23:55;;;;;;;5.18;1.60;;;;;;;;;;5124158;27;42518;-63
2023/10/24 11:26:23;;;;;;;7.18;2.38;;;;;;;;;;5123512;27;40614;-64
2023/10/24 11:28:52;;;;;;;6.65;2.20;;;;;;;;;;5119295;27;42464;-65
2023/10/24 11:31:21;;;;;;;9.13;2.30;;;;;;;;;;5118821;27;42142;-64
2023/10/24 11:33:50;;;;;;;6.68;2.17;;;;;;;;;;5117187;27;40008;-64
2023/10/24 11:36:18;;;;;;;4.07;1.98;;;;;;;;;;5123352;27;42604;-64
2023/10/24 11:38:47;;;;;;;6.25;1.88;;;;;;;;;;5120208;27;42919;-64
2023/10/24 11:41:15;;;;;;;6.25;1.60;;;;;;;;;;5125033;27;40249;-64
2023/10/24 11:43:45;;;;;;;4.47;1.88;;;;;;;;;;5123254;27;41307;-65
2023/10/24 11:46:13;;;;;;;3.38;2.10;;;;;;;;;;5126919;27;42739;-64
2023/10/24 11:48:42;;;;;;;2.88;1.63;;;;;;;;;;5124539;27;40306;-64
2023/10/24 11:51:10;;;;;;;4.20;2.65;;;;;;;;;;5126080;27;41754;-64
2023/10/24 11:53:38;;;;;;;5.78;2.03;;;;;;;;;;5125125;27;41120;-65
2023/10/24 11:56:06;;;;;;;4.55;1.92;;;;;;;;;;5123977;27;41493;-60
2023/10/24 11:58:35;;;;;;;5.97;2.33;;;;;;;;;;5122539;27;42204;-61
2023/10/24 12:01:03;;;;;;;3.08;2.10;;;;;;;;;;5124786;27;39902;-61
2023/10/24 12:03:41;;;;;;;3.13;1.88;;;;;;;;;;5125692;27;41640;-60
2023/10/24 12:06:10;;;;;;;4.68;1.80;;;;;;;;;;5124692;27;41528;-61
2023/10/24 12:08:38;;;;;;;5.80;2.13;;;;;;;;;;5125403;27;40855;-61
2023/10/24 12:11:09;;;;;;;6.10;2.40;;;;;;;;;;5121960;27;42790;-61
2023/10/24 12:13:36;;;;;;;5.53;2.20;;;;;;;;;;5125798;27;41560;-61
2023/10/24 12:16:05;;;;;;;2.60;2.08;;;;;;;;;;5122723;27;41628;-63
2023/10/24 12:18:33;;;;;;;5.15;1.70;;;;;;;;;;5118732;27;42836;-64
2023/10/24 12:21:04;;;;;;;3.30;1.50;;;;;;;;;;5126468;27;40578;-65
2023/10/24 12:23:34;;;;;;;3.03;1.88;;;;;;;;;;5117583;27;42227;-65
2023/10/24 12:26:04;;;;;;;4.90;1.75;;;;;;;;;;5125043;27;41936;-65
2023/10/24 12:28:32;;;;;;;4.50;2.08;;;;;;;;;;5123464;27;40692;-65
2023/10/24 12:31:00;;;;;;;6.22;2.17;;;;;;;;;;5123982;27;41287;-65
2023/10/24 12:33:28;;;;;;;5.13;2.08;;;;;;;;;;5124019;27;43147;-65
2023/10/24 12:35:56;;;;;;;3.20;1.20;;;;;;;;;;5126509;27;40148;-66
2023/10/24 12:38:28;;;;;;;5.90;1.67;;;;;;;;;;5124600;27;42152;-66
2023/10/24 12:40:57;;;;;;;4.57;2.00;;;;;;;;;;5123669;27;41849;-65
2023/10/24 12:43:25;;;;;;;2.15;1.45;;;;;;;;;;5125156;27;41642;-65
2023/10/24 12:45:53;;;;;;;3.05;1.52;;;;;;;;;;5123613;27;41824;-65
2023/10/24 12:48:22;;;;;;;5.60;1.40;;;;;;;;;;5122765;27;39805;-65
2023/10/24 12:50:50;;;;;;;3.28;1.58;;;;;;;;;;5121635;27;41769;-65
2023/10/24 12:53:20;;;;;;;3.10;2.55;;;;;;;;;;5126156;27;42070;-65
2023/10/24 12:55:48;;;;;;;4.65;1.63;;;;;;;;;;5124019;27;39755;-65
2023/10/24 12:58:17;;;;;;;4.75;2.20;;;;;;;;;;5126890;27;41636;-65
2023/10/24 13:00:45;;;;;;;2.70;1.48;;;;;;;;;;5124506;27;39210;-65
2023/10/24 13:03:13;;;;;;;5.43;2.17;;;;;;;;;;5124464;27;41729;-64
2023/10/24 13:05:45;;;;;;;2.85;1.48;;;;;;;;;;5125297;27;41016;-65
2023/10/24 13:08:13;;;;;;;1.90;1.50;;;;;;;;;;5124062;27;41278;-65
2023/10/24 13:10:41;;;;;;;4.35;1.60;;;;;;;;;;5124682;27;41304;-64
2023/10/24 13:13:09;;;;;;;3.92;1.67;;;;;;;;;;5120019;27;42181;-64
2023/10/24 13:15:39;;;;;;;6.88;1.95;;;;;;;;;;5124015;27;39826;-65
2023/10/24 13:18:07;;;;;;;2.47;1.98;;;;;;;;;;5124130;27;42243;-65
2023/10/24 13:20:35;;;;;;;3.13;2.60;;;;;;;;;;5124082;27;40014;-65
2023/10/24 13:23:03;;;;;;;2.85;2.30;;;;;;;;;;5126163;27;42139;-65
2023/10/24 13:25:31;;;;;;;5.72;4.97;;;;;;;;;;5122746;27;42266;-65
2023/10/24 13:27:59;;;;;;;5.80;4.25;;;;;;;;;;5124052;27;40992;-63
2023/10/24 13:30:28;;;;;;;8.85;8.00;;;;;;;;;;5114945;27;41585;-64
2023/10/24 13:33:13;;;;;;;6.35;5.72;;;;;;;;;;5126235;27;42526;-63
2023/10/24 13:35:41;;;;;;;7.53;6.40;;;;;;;;;;5122416;27;41056;-64
2023/10/24 13:38:11;;;;;;;7.80;6.55;;;;;;;;;;5125511;27;41846;-62
2023/10/24 13:40:39;;;;;;;7.90;7.15;;;;;;;;;;5122468;27;41896;-62
2023/10/24 13:43:08;;;;;;;5.22;4.82;;;;;;;;;;5124688;27;40928;-64
2023/10/24 13:45:36;;;;;;;6.40;5.13;;;;;;;;;;5124316;27;43586;-65
2023/10/24 13:48:04;;;;;;;4.97;4.57;;;;;;;;;;5122014;27;40850;-65
2023/10/24 13:50:33;;;;;;;5.03;4.53;;;;;;;;;;5122884;27;41170;-65
2023/10/24 13:53:03;;;;;;;6.20;4.15;;;;;;;;;;5122851;27;42423;-65
2023/10/24 13:55:33;;;;;;;5.70;3.35;;;;;;;;;;5122583;27;39921;-65
2023/10/24 13:58:02;;;;;;;5.82;3.40;;;;;;;;;;5124088;27;40998;-65
2023/10/24 14:00:30;;;;;;;5.28;3.70;;;;;;;;;;5122043;27;43237;-65
2023/10/24 14:02:58;;;;;;;4.95;3.25;;;;;;;;;;5122378;27;41357;-65
2023/10/24 14:05:26;;;;;;;4.05;3.58;;;;;;;;;;5123309;27;42831;-65
2023/10/24 14:07:55;;;;;;;6.43;3.00;;;;;;;;;;5124071;27;40082;-64
2023/10/24 14:10:23;;;;;;;5.43;3.10;;;;;;;;;;5122041;27;41474;-64
2023/10/24 14:12:51;;;;;;;3.13;2.80;;;;;;;;;;5124545;27;41857;-65
2023/10/24 14:15:19;;;;;;;5.53;2.60;;;;;;;;;;5123549;27;39890;-64
2023/10/24 14:17:47;;;;;;;2.70;2.50;;;;;;;;;;5122040;27;42105;-64
2023/10/24 14:20:17;;;;;;;3.67;2.50;;;;;;;;;;5123654;27;42699;-60
2023/10/24 14:22:49;;;;;;;2.60;2.40;;;;;;;;;;5122794;27;40539;-60
2023/10/24 14:25:19;;;;;;;5.07;2.38;;;;;;;;;;5125062;27;43222;-61
2023/10/24 14:27:50;;;;;;;5.05;2.05;;;;;;;;;;5121326;27;39369;-60
2023/10/24 14:30:18;;;;;;;5.28;2.95;;;;;;;;;;5125132;27;41825;-61
2023/10/24 14:32:46;;;;;;;5.55;1.98;;;;;;;;;;5119889;27;42370;-61
2023/10/24 14:35:14;;;;;;;3.58;2.08;;;;;;;;;;5124940;27;41412;-60
2023/10/24 14:37:43;;;;;;;4.07;1.77;;;;;;;;;;5121385;27;42708;-61
2023/10/24 14:40:12;;;;;;;1.90;1.77;;;;;;;;;;5122953;27;41931;-60
2023/10/24 14:42:42;;;;;;;3.88;1.77;;;;;;;;;;5122360;27;39768;-60
2023/10/24 14:45:10;;;;;;;3.47;1.65;;;;;;;;;;5123010;27;40649;-60
2023/10/24 14:47:39;;;;;;;3.85;2.03;;;;;;;;;;5119009;27;32024;-61
2023/10/24 14:50:08;;;;;;;3.67;2.03;;;;;;;;;;5120635;27;40902;-61
2023/10/24 14:52:36;;;;;;;2.30;1.67;;;;;;;;;;5116659;27;41855;-65